createdAt,value
2022-09-05T00:00:15.619Z,2.70
2022-09-05T00:03:20.634Z,2.53
2022-09-05T00:06:24.209Z,2.40
2022-09-05T00:09:21.492Z,2.70
2022-09-05T00:11:58.378Z,2.77
2022-09-05T00:15:16.765Z,2.60
2022-09-05T00:22:42.392Z,2.80
2022-09-05T00:24:22.001Z,3.20
2022-09-05T00:24:54.713Z,2.77
2022-09-05T00:27:43.838Z,2.53
2022-09-05T00:31:51.819Z,2.83
2022-09-05T00:33:44.059Z,2.27
2022-09-05T00:36:55.277Z,3.00
2022-09-05T00:39:36.115Z,2.80
2022-09-05T00:42:15.420Z,3.57
2022-09-05T00:45:01.965Z,2.93
2022-09-05T00:48:03.164Z,3.03
2022-09-05T00:50:40.658Z,3.27
2022-09-05T00:53:26.117Z,2.90
2022-09-05T00:56:17.234Z,3.17
2022-09-05T00:59:27.130Z,2.70
2022-09-05T01:02:16.707Z,3.00
2022-09-05T01:04:59.428Z,2.80
2022-09-05T01:07:56.967Z,3.13
2022-09-05T01:10:57.062Z,3.97
2022-09-05T01:14:22.004Z,3.87
2022-09-05T01:17:26.543Z,2.50
2022-09-05T01:20:21.250Z,2.70
2022-09-05T01:23:29.223Z,2.70
2022-09-05T01:26:50.157Z,3.17
2022-09-05T01:29:34.135Z,4.10
2022-09-05T01:32:25.081Z,3.23
2022-09-05T01:35:26.126Z,3.43
2022-09-05T01:38:18.607Z,3.57
2022-09-05T01:41:31.750Z,3.10
2022-09-05T01:44:26.307Z,2.97
2022-09-05T01:47:31.089Z,3.03
2022-09-05T01:50:17.127Z,3.50
2022-09-05T01:53:33.230Z,4.17
2022-09-05T01:56:34.250Z,2.20
2022-09-05T01:59:50.938Z,3.30
2022-09-05T02:03:13.512Z,3.37
2022-09-05T02:05:57.115Z,2.87
2022-09-05T02:09:07.781Z,2.60
2022-09-05T02:11:52.729Z,3.07
2022-09-05T02:15:02.074Z,2.90
2022-09-05T02:17:51.103Z,3.00
2022-09-05T02:20:46.153Z,2.70
2022-09-05T02:23:42.758Z,3.70
2022-09-05T02:26:27.027Z,2.80
2022-09-05T02:29:10.916Z,3.37
2022-09-05T02:31:55.458Z,2.77
2022-09-05T02:34:41.349Z,3.03
2022-09-05T02:40:32.611Z,3.60
2022-09-05T02:45:11.753Z,3.40
2022-09-05T02:45:13.704Z,2.67
2022-09-05T02:47:37.741Z,2.60
2022-09-05T02:57:29.200Z,2.70
2022-09-05T02:57:34.045Z,2.73
2022-09-05T02:57:42.486Z,3.93
2022-09-05T03:00:13.579Z,3.60
2022-09-05T03:03:18.730Z,4.20
2022-09-05T03:06:04.482Z,2.90
2022-09-05T03:09:28.296Z,2.40
2022-09-05T03:12:28.846Z,2.60
2022-09-05T03:15:43.278Z,3.57
2022-09-05T03:19:07.950Z,3.07
2022-09-05T03:22:41.076Z,2.33
2022-09-05T03:25:31.190Z,2.63
2022-09-05T03:29:00.655Z,3.13
2022-09-05T03:31:56.772Z,2.97
2022-09-05T03:34:48.358Z,3.37
2022-09-05T03:37:17.898Z,2.93
2022-09-05T03:40:15.675Z,3.67
2022-09-05T03:43:23.030Z,2.53
2022-09-05T03:46:18.053Z,3.30
2022-09-05T03:50:09.467Z,2.70
2022-09-05T03:57:08.044Z,3.37
2022-09-05T03:57:27.198Z,3.30
2022-09-05T04:00:02.492Z,4.47
2022-09-05T04:08:08.970Z,3.73
2022-09-05T04:08:14.407Z,3.03
2022-09-05T04:09:09.651Z,2.97
2022-09-05T04:12:09.701Z,3.13
2022-09-05T04:14:58.307Z,3.10
2022-09-05T04:18:03.765Z,3.50
2022-09-05T04:21:01.804Z,3.00
2022-09-05T04:24:09.584Z,3.30
2022-09-05T04:27:20.953Z,3.43
2022-09-05T04:30:00.363Z,3.20
2022-09-05T04:33:08.229Z,3.10
2022-09-05T04:36:17.869Z,2.60
2022-09-05T04:38:46.236Z,3.03
2022-09-05T04:41:16.891Z,3.73
2022-09-05T04:44:10.856Z,3.50
2022-09-05T04:46:48.758Z,4.57
2022-09-05T04:49:33.114Z,3.50
2022-09-05T04:52:09.750Z,3.23
2022-09-05T04:55:14.050Z,5.90
2022-09-05T04:58:07.055Z,4.00
2022-09-05T05:05:59.953Z,5.20
2022-09-05T05:06:09.090Z,6.00
2022-09-05T05:06:42.274Z,4.10
2022-09-05T05:09:38.136Z,3.77
2022-09-05T05:17:40.367Z,3.77
2022-09-05T05:18:06.383Z,5.70
2022-09-05T05:19:03.012Z,5.20
2022-09-05T05:21:33.300Z,5.93
2022-09-05T05:24:02.057Z,5.17
2022-09-05T05:26:42.570Z,4.63
2022-09-05T05:29:24.201Z,4.60
2022-09-05T05:32:01.000Z,4.43
2022-09-05T05:34:41.287Z,5.40
2022-09-05T05:37:43.362Z,6.07
2022-09-05T05:40:17.317Z,5.63
2022-09-05T05:42:46.715Z,5.30
2022-09-05T05:45:19.267Z,5.87
2022-09-05T05:47:54.419Z,5.97
2022-09-05T05:51:03.201Z,5.90
2022-09-05T05:53:53.694Z,5.70
2022-09-05T05:56:57.600Z,7.30
2022-09-05T05:59:32.399Z,6.60
2022-09-05T06:02:17.384Z,5.30
2022-09-05T06:05:24.079Z,5.50
2022-09-05T06:12:53.585Z,6.20
2022-09-05T06:15:05.252Z,6.60
2022-09-05T06:15:36.972Z,6.00
2022-09-05T06:18:57.505Z,6.00
2022-09-05T06:22:14.773Z,6.23
2022-09-05T06:25:21.817Z,6.77
2022-09-05T06:28:18.751Z,7.07
2022-09-05T06:31:29.580Z,6.57
2022-09-05T06:34:32.654Z,6.83
2022-09-05T06:37:25.761Z,6.43
2022-09-05T06:40:28.017Z,7.67
2022-09-05T06:43:24.718Z,6.47
2022-09-05T06:46:15.929Z,7.13
2022-09-05T06:49:38.722Z,6.27
2022-09-05T06:53:10.948Z,7.07
2022-09-05T06:56:25.389Z,6.53
2022-09-05T06:59:24.129Z,6.70
2022-09-05T07:02:12.189Z,7.23
2022-09-05T07:05:37.674Z,6.97
2022-09-05T07:08:36.461Z,7.00
2022-09-05T07:11:35.369Z,6.60
2022-09-05T07:14:37.878Z,6.53
2022-09-05T07:17:26.601Z,5.67
2022-09-05T07:20:01.856Z,6.33
2022-09-05T07:22:47.495Z,6.30
2022-09-05T07:25:31.628Z,6.53
2022-09-05T07:28:29.162Z,5.97
2022-09-05T07:31:06.990Z,6.13
2022-09-05T07:33:39.776Z,6.33
2022-09-05T07:36:19.197Z,5.63
2022-09-05T07:39:02.346Z,5.50
2022-09-05T07:41:42.250Z,5.50
2022-09-05T07:44:34.591Z,5.43
2022-09-05T07:47:42.623Z,5.23
2022-09-05T07:54:06.032Z,5.17
2022-09-05T07:57:01.852Z,4.07
2022-09-05T07:57:06.383Z,4.30
2022-09-05T07:58:53.080Z,4.43
2022-09-05T08:01:22.752Z,3.43
2022-09-05T08:03:56.034Z,3.60
2022-09-05T08:06:41.488Z,3.23
2022-09-05T08:10:05.995Z,3.33
2022-09-05T08:13:23.773Z,2.67
2022-09-05T08:15:39.694Z,2.90
2022-09-05T08:18:42.684Z,3.00
2022-09-05T08:21:28.149Z,2.77
2022-09-05T08:24:24.851Z,2.40
2022-09-05T08:27:16.474Z,2.50
2022-09-05T08:30:26.823Z,2.53
2022-09-05T08:33:22.049Z,2.25
2022-09-05T08:36:05.025Z,1.88
2022-09-05T08:38:38.758Z,1.90
2022-09-05T08:41:17.418Z,2.40
2022-09-05T08:46:40.242Z,2.00
2022-09-05T08:47:25.212Z,1.75
2022-09-05T08:50:26.865Z,2.10
2022-09-05T08:53:32.519Z,2.38
2022-09-05T08:56:10.293Z,1.55
2022-09-05T08:59:27.531Z,1.50
2022-09-05T09:02:47.332Z,1.60
2022-09-05T09:06:12.121Z,1.60
2022-09-05T09:09:10.953Z,1.80
2022-09-05T09:11:45.220Z,1.75
2022-09-05T09:14:31.825Z,1.90
2022-09-05T09:17:34.494Z,1.52
2022-09-05T09:20:31.190Z,2.10
2022-09-05T09:23:38.984Z,1.50
2022-09-05T09:26:15.784Z,1.23
2022-09-05T09:29:08.122Z,1.50
2022-09-05T09:31:56.212Z,1.40
2022-09-05T09:34:45.734Z,1.60
2022-09-05T09:37:50.684Z,1.30
2022-09-05T09:41:09.129Z,1.58
2022-09-05T09:44:08.652Z,1.42
2022-09-05T09:46:50.670Z,1.10
2022-09-05T09:49:54.833Z,1.50
2022-09-05T09:53:06.816Z,1.30
2022-09-05T09:56:13.337Z,1.05
2022-09-05T09:59:23.897Z,1.58
2022-09-05T10:04:31.330Z,1.00
2022-09-05T10:10:40.320Z,0.90
2022-09-05T10:11:07.996Z,1.17
2022-09-05T10:13:15.353Z,1.10
2022-09-05T10:16:27.644Z,0.98
2022-09-05T10:22:59.262Z,1.08
2022-09-05T10:26:01.292Z,1.00
2022-09-05T10:29:36.647Z,1.30
2022-09-05T10:35:05.712Z,1.05
2022-09-05T10:35:24.633Z,0.80
2022-09-05T10:38:04.371Z,1.00
2022-09-05T10:41:14.617Z,1.00
2022-09-05T10:43:36.104Z,1.67
2022-09-05T10:46:10.351Z,1.00
2022-09-05T10:48:53.592Z,1.13
2022-09-05T10:51:37.746Z,1.40
2022-09-05T10:55:14.747Z,1.05
2022-09-05T10:58:35.289Z,1.05
2022-09-05T11:02:20.978Z,1.30
2022-09-05T11:05:12.820Z,1.30
2022-09-05T11:08:09.882Z,1.80
2022-09-05T11:11:26.078Z,1.20
2022-09-05T11:14:26.828Z,1.20
2022-09-05T11:17:10.107Z,1.35
2022-09-05T11:19:55.298Z,0.90
2022-09-05T11:22:28.452Z,0.95
2022-09-05T11:25:15.020Z,0.98
2022-09-05T11:27:53.388Z,1.30
2022-09-05T11:30:30.009Z,1.08
2022-09-05T11:39:50.313Z,1.10
2022-09-05T11:40:00.057Z,1.30
2022-09-05T11:40:28.870Z,1.30
2022-09-05T11:43:28.869Z,1.30
2022-09-05T11:46:38.854Z,1.25
2022-09-05T11:49:37.071Z,0.93
2022-09-05T11:52:22.071Z,1.10
2022-09-05T11:55:32.993Z,1.23
2022-09-05T11:58:43.522Z,0.90
2022-09-05T12:02:24.120Z,1.10
2022-09-05T12:05:49.348Z,1.00
2022-09-05T12:08:35.165Z,1.10
2022-09-05T12:11:52.056Z,1.30
2022-09-05T12:15:04.394Z,1.23
2022-09-05T12:18:03.612Z,0.80
2022-09-05T12:21:00.728Z,0.98
2022-09-05T12:25:15.499Z,1.02
2022-09-05T12:27:40.624Z,1.00
2022-09-05T12:30:03.824Z,0.90
2022-09-05T12:33:50.757Z,1.10
2022-09-05T12:36:07.610Z,1.20
2022-09-05T12:40:58.518Z,1.08
2022-09-05T12:42:13.889Z,0.90
2022-09-05T12:44:46.550Z,1.10
2022-09-05T12:47:21.173Z,1.33
2022-09-05T12:50:14.931Z,1.15
2022-09-05T12:52:52.162Z,0.90
2022-09-05T12:55:33.725Z,1.17
2022-09-05T13:03:01.949Z,1.30
2022-09-05T13:03:03.263Z,1.02
2022-09-05T13:04:27.161Z,1.00
2022-09-05T13:07:11.920Z,1.10
2022-09-05T13:11:54.389Z,1.00
2022-09-05T13:15:01.966Z,0.90
2022-09-05T13:15:52.270Z,0.93
2022-09-05T13:18:30.757Z,0.80
2022-09-05T13:21:23.054Z,1.00
2022-09-05T13:24:12.062Z,0.90
2022-09-05T13:26:52.062Z,0.82
2022-09-05T13:29:25.323Z,1.00
2022-09-05T13:38:03.158Z,0.93
2022-09-05T13:38:12.951Z,1.00
2022-09-05T13:38:47.496Z,0.85
2022-09-05T13:41:28.308Z,0.90
2022-09-05T13:44:00.266Z,0.80
2022-09-05T13:47:29.995Z,0.80
2022-09-05T13:50:30.873Z,0.88
2022-09-05T13:53:27.403Z,0.73
2022-09-05T13:56:13.123Z,0.80
2022-09-05T13:58:54.426Z,0.70
2022-09-05T14:02:29.105Z,0.70
2022-09-05T14:05:20.828Z,0.70
2022-09-05T14:08:33.679Z,0.90
2022-09-05T14:11:45.002Z,0.70
2022-09-05T14:20:28.627Z,0.95
2022-09-05T14:23:07.639Z,1.20
2022-09-05T14:25:40.464Z,1.45
2022-09-05T14:28:38.577Z,0.90
2022-09-05T14:35:23.487Z,0.90
2022-09-05T14:37:39.023Z,0.85
2022-09-05T14:38:14.524Z,0.80
2022-09-05T14:41:44.193Z,0.93
2022-09-05T14:44:46.486Z,0.80
2022-09-05T14:47:40.655Z,0.93
2022-09-05T14:50:49.536Z,1.15
2022-09-05T14:56:46.462Z,0.70
2022-09-05T15:02:51.033Z,0.75
2022-09-05T15:03:00.244Z,0.75
2022-09-05T15:05:28.752Z,0.90
2022-09-05T15:09:50.893Z,0.90
2022-09-05T15:12:16.422Z,1.95
2022-09-05T15:14:10.001Z,0.80
2022-09-05T15:16:43.588Z,0.73
2022-09-05T15:19:11.798Z,0.80
2022-09-05T15:21:41.282Z,1.10
2022-09-05T15:24:30.180Z,0.90
2022-09-05T15:27:02.595Z,0.90
2022-09-05T15:29:35.439Z,0.95
2022-09-05T15:32:26.259Z,0.80
2022-09-05T15:34:59.071Z,0.90
2022-09-05T15:37:43.086Z,0.82
2022-09-05T15:40:22.590Z,0.88
2022-09-05T15:43:02.001Z,0.88
2022-09-05T15:45:35.134Z,0.93
2022-09-05T15:48:26.473Z,0.80
2022-09-05T15:51:17.281Z,0.98
2022-09-05T15:53:44.360Z,0.88
2022-09-05T15:56:11.233Z,0.68
2022-09-05T15:58:56.405Z,0.90
2022-09-05T16:01:59.006Z,0.77
2022-09-05T16:10:27.773Z,0.98
2022-09-05T16:10:40.242Z,0.90
2022-09-05T16:10:57.378Z,0.80
2022-09-05T16:13:17.788Z,1.02
2022-09-05T16:21:49.742Z,0.93
2022-09-05T16:23:26.017Z,1.40
2022-09-05T16:23:26.564Z,2.70
2022-09-05T16:24:57.908Z,0.80
2022-09-05T16:28:02.985Z,0.90
2022-09-05T16:30:36.282Z,0.90
2022-09-05T16:33:19.274Z,0.90
2022-09-05T16:36:04.686Z,2.42
2022-09-05T16:38:55.513Z,1.08
2022-09-05T16:41:46.951Z,0.80
2022-09-05T16:44:54.530Z,0.70
2022-09-05T16:47:27.634Z,1.05
2022-09-05T16:50:34.239Z,0.95
2022-09-05T16:53:47.415Z,0.80
2022-09-05T16:56:41.513Z,1.05
2022-09-05T16:59:26.624Z,1.20
2022-09-05T17:02:27.838Z,0.90
2022-09-05T17:05:43.566Z,1.00
2022-09-05T17:08:29.730Z,1.38
2022-09-05T17:11:12.249Z,0.95
2022-09-05T17:13:57.444Z,0.95
2022-09-05T17:16:41.393Z,1.85
2022-09-05T17:19:22.384Z,1.80
2022-09-05T17:24:02.088Z,1.05
2022-09-05T17:29:34.130Z,2.50
2022-09-05T17:29:37.962Z,1.00
2022-09-05T17:31:50.866Z,2.80
2022-09-05T17:33:45.647Z,1.40
2022-09-05T17:36:22.274Z,5.15
2022-09-05T17:39:44.333Z,1.80
2022-09-05T17:42:34.211Z,1.08
2022-09-05T17:45:44.940Z,0.98
2022-09-05T17:48:36.305Z,1.20
2022-09-05T17:51:03.375Z,1.30
2022-09-05T17:53:33.349Z,1.13
2022-09-05T17:56:01.359Z,1.00
2022-09-05T17:58:49.521Z,1.00
2022-09-05T18:01:26.634Z,1.30
2022-09-05T18:04:16.035Z,1.25
2022-09-05T18:06:59.563Z,1.30
2022-09-05T18:09:37.137Z,1.10
2022-09-05T18:13:12.599Z,1.17
2022-09-05T18:15:29.563Z,1.00
2022-09-05T18:18:42.304Z,1.20
2022-09-05T18:21:21.693Z,1.00
2022-09-05T18:24:05.289Z,1.20
2022-09-05T18:26:46.194Z,1.20
2022-09-05T18:29:58.025Z,1.15
2022-09-05T18:32:54.189Z,1.35
2022-09-05T18:36:25.745Z,1.50
2022-09-05T18:39:23.232Z,1.03
2022-09-05T18:42:26.094Z,1.93
2022-09-05T18:45:14.644Z,1.60
2022-09-05T18:47:59.112Z,1.20
2022-09-05T18:50:35.187Z,1.57
2022-09-05T18:53:10.421Z,1.20
2022-09-05T18:56:13.054Z,1.37
2022-09-05T18:59:24.186Z,1.43
2022-09-05T19:02:44.174Z,2.00
2022-09-05T19:05:16.879Z,1.80
2022-09-05T19:07:50.191Z,2.37
2022-09-05T19:10:34.603Z,2.60
2022-09-05T19:13:23.943Z,1.90
2022-09-05T19:16:34.910Z,1.60
2022-09-05T19:19:18.617Z,1.47
2022-09-05T19:21:56.256Z,1.80
2022-09-05T19:24:44.780Z,1.60
2022-09-05T19:27:16.178Z,1.60
2022-09-05T19:36:54.642Z,1.27
2022-09-05T19:36:55.836Z,1.20
2022-09-05T19:37:14.646Z,1.27
2022-09-05T19:40:20.507Z,1.33
2022-09-05T19:47:34.344Z,1.40
2022-09-05T19:47:39.302Z,1.70
2022-09-05T19:50:29.944Z,2.07
2022-09-05T19:53:07.214Z,2.60
2022-09-05T19:55:37.864Z,2.40
2022-09-05T19:58:18.871Z,1.67
2022-09-05T20:01:01.261Z,2.20
2022-09-05T20:03:39.376Z,2.23
2022-09-05T20:06:29.917Z,2.10
2022-09-05T20:09:30.188Z,3.13
2022-09-05T20:11:59.737Z,2.20
2022-09-05T20:14:36.548Z,1.90
2022-09-05T20:17:28.705Z,1.50
2022-09-05T20:20:09.151Z,1.40
2022-09-05T20:22:48.535Z,1.23
2022-09-05T20:25:39.894Z,1.70
2022-09-05T20:28:17.884Z,1.70
2022-09-05T20:30:50.841Z,1.60
2022-09-05T20:33:51.976Z,1.40
2022-09-05T20:40:16.622Z,1.20
2022-09-05T20:43:22.130Z,2.27
2022-09-05T20:43:35.415Z,2.00
2022-09-05T20:46:05.253Z,2.00
2022-09-05T20:54:20.747Z,1.90
2022-09-05T20:54:21.532Z,1.67
2022-09-05T20:54:36.086Z,2.10
2022-09-05T20:57:23.186Z,2.10
2022-09-05T20:59:50.104Z,1.50
2022-09-05T21:02:27.893Z,1.63
2022-09-05T21:05:06.745Z,1.60
2022-09-05T21:07:59.233Z,2.40
2022-09-05T21:10:55.060Z,1.50
2022-09-05T21:13:51.860Z,1.80
2022-09-05T21:16:27.037Z,2.50
2022-09-05T21:18:54.130Z,1.93
2022-09-05T21:21:32.185Z,1.83
2022-09-05T21:24:15.878Z,2.30
2022-09-05T21:26:49.889Z,1.90
2022-09-05T21:29:26.481Z,2.23
2022-09-05T21:32:02.427Z,2.17
2022-09-05T21:34:45.247Z,2.20
2022-09-05T21:37:15.770Z,2.40
2022-09-05T21:40:00.144Z,2.17
2022-09-05T21:45:38.505Z,2.00
2022-09-05T21:47:49.163Z,1.90
2022-09-05T21:48:15.757Z,1.97
2022-09-05T21:50:49.615Z,2.50
2022-09-05T21:55:14.806Z,2.40
2022-09-05T21:59:18.012Z,2.00
2022-09-05T21:59:41.577Z,1.90
2022-09-05T22:02:13.456Z,2.40
2022-09-05T22:04:41.711Z,2.50
2022-09-05T22:07:19.589Z,2.23
2022-09-05T22:09:59.025Z,1.97
2022-09-05T22:12:36.717Z,1.87
2022-09-05T22:15:28.881Z,2.10
2022-09-05T22:18:16.537Z,2.13
2022-09-05T22:21:17.486Z,2.50
2022-09-05T22:23:39.529Z,1.70
2022-09-05T22:26:06.815Z,2.63
2022-09-05T22:28:38.243Z,1.80
2022-09-05T22:31:07.857Z,2.30
2022-09-05T22:33:35.874Z,2.47
2022-09-05T22:36:03.538Z,3.00
2022-09-05T22:38:30.702Z,2.47
2022-09-05T22:40:57.624Z,2.63
2022-09-05T22:43:25.619Z,1.90
2022-09-05T22:45:56.221Z,2.13
2022-09-05T22:48:24.131Z,2.13
2022-09-05T22:50:51.131Z,2.73
2022-09-05T22:53:18.477Z,2.00
2022-09-05T22:55:45.359Z,2.00
2022-09-05T22:58:15.134Z,2.20
2022-09-05T23:00:44.474Z,2.10
2022-09-05T23:03:11.507Z,2.60
2022-09-05T23:05:39.236Z,2.70
2022-09-05T23:08:06.786Z,2.57
2022-09-05T23:10:35.477Z,1.70
2022-09-05T23:13:10.319Z,2.70
2022-09-05T23:15:37.987Z,2.53
2022-09-05T23:18:05.672Z,2.83
2022-09-05T23:20:33.965Z,2.10
2022-09-05T23:23:05.554Z,2.83
2022-09-05T23:25:34.035Z,3.00
2022-09-05T23:28:09.277Z,2.80
2022-09-05T23:30:38.359Z,2.00
2022-09-05T23:33:08.088Z,2.53
2022-09-05T23:35:36.492Z,2.23
2022-09-05T23:38:09.050Z,2.17
2022-09-05T23:40:36.083Z,2.67
2022-09-05T23:43:04.085Z,2.50
2022-09-05T23:45:31.676Z,2.30
2022-09-05T23:47:59.421Z,2.83
2022-09-05T23:50:28.385Z,2.10
2022-09-05T23:52:55.503Z,2.10
2022-09-05T23:55:23.377Z,2.40
2022-09-05T23:57:57.156Z,1.90
